Meteo Giornale » Osservazioni meteo Stati Uniti (USA) » Akron -Washington
ore: 04:53 - Osservazioni Meteo Akron -Washington
Lat. 40° 10' N Lon. 103° 12' W Alt. 1431 metri s.l.m.
17 °C
Sereno
Temp. 24 Ore
16 °C
31 °C
Sud-Ovest
14.8 Km/h
Dew point 13 °C
Umidità 77 %
Visibilità 10 Km
Il sole sorge alle ore 06:20
Il sole tramonta alle ore 19:24
| Data e Ora | Cielo e Fenomeni | T °C | DP °C | Um. % | Pres. hPa | Vis. km | Vento km/h | |
|---|---|---|---|---|---|---|---|---|
| Oggi h: 04:53 | Sereno | 17 | 13 | 77 | 1019 | 10 | SO 14.8 | |
| Oggi h: 03:53 | Sereno | 18 | 13 | 72 | 1019 | 10 | O/SO 16.7 | |
| Oggi h: 02:53 | Pioggia | 19 | 13 | 68 | 1019 | 10 | SO 22.2 | |
| Oggi h: 01:53 | Sereno | 19 | 13 | 68 | 1020 | 10 | S 16.7 | |
| Oggi h: 00:53 | Sereno | 18 | 14 | 77 | 1020 | 10 | E/SE 7.4 | |
| Ieri h: 23:53 | Molto Nuvoloso | 20 | 14 | 68 | 1019 | 10 | N 18.5 | |
| Ieri h: 22:53 | Poco Nuvoloso | 22 | 14 | 60 | 1019 | 10 | S/SO 13 | |
| Ieri h: 21:53 | Sereno | 22 | 14 | 60 | 1019 | 10 | S/SE 18.5 | |
| Ieri h: 20:53 | Sereno | 24 | 11 | 43 | 1019 | 10 | E/SE 20.3 | |
| Ieri h: 19:53 | Sereno | 23 | 8 | 38 | 1018 | 10 | E 13 | |
| Ieri h: 18:53 | Sereno | 26 | 8 | 31 | 1018 | 10 | E/SE 11.1 | |
| Ieri h: 17:53 | Sereno | 29 | 6 | 23 | 1018 | 10 | E/SE 14.8 | |
| Ieri h: 16:53 | Poco Nuvoloso | 30 | 4 | 19 | 1019 | 10 | NE 11.1 | |
| Ieri h: 15:53 | Sereno | 29 | 4 | 20 | 1019 | 10 | NE 7.4 | |
| Ieri h: 14:53 | Sereno | 31 | 5 | 19 | 1020 | 10 | N/NE 11.1 | |
| Ieri h: 13:53 | Sereno | 29 | 6 | 23 | 1020 | 10 | NE 11.1 | |
| Ieri h: 12:53 | Sereno | 29 | 7 | 25 | 1020 | 10 | N/NE 18.5 | |
| Ieri h: 11:53 | Sereno | 28 | 8 | 28 | 1021 | 10 | N/NE 16.7 | |
| Ieri h: 10:53 | Sereno | 27 | 9 | 32 | 1021 | 10 | N/NE 20.3 | |
| Ieri h: 09:53 | Sereno | 25 | 11 | 41 | 1021 | 10 | N 11.1 | |
| Ieri h: 08:53 | Sereno | 22 | 12 | 53 | 1020 | 10 | O 13 | |
| Ieri h: 07:53 | Sereno | 21 | 12 | 56 | 1020 | 10 | O/SO 13 | |
| Ieri h: 06:53 | Sereno | 17 | 11 | 67 | 1020 | 10 | SO 13 | |
| Ieri h: 05:53 | Sereno | 16 | 11 | 72 | 1019 | 10 | O 11.1 | |



